KLSV/LSV METAR and TAF weather

Enter ICAO airport designator
Station Type Date Time Source
KLSV METAR 2021/01/16 01:58 UTC NOAA

KLSV 160158Z AUTO M M M M M M RMK AO2 SLPNO RVRNO $


Station Type Date Time Source
KLSV Decoded METAR 2021/01/16 01:58 UTC NOAA

Nellis Air Force Base, NV, United States (KLSV) 36-14N 115-02W
Jan 15, 2021 - 08:58 PM EST / 2021.01.16 0158 UTC
ob: KLSV 160158Z AUTO M M M M M M RMK AO2 SLPNO RVRNO
cycle: 2

Station Type Date Time Source
KLSV TAF 2021/01/15 23:59 UTC NOAA

TAF KLSV 152300Z 1523/1705 VRB06KT 9999 FEW250 QNH3022INS
BECMG 1614/1615 03010G15KT 9999 SCT250 QNH3014INS
TEMPO 1618/1622 02015G25KT 520009
BECMG 1700/1701 VRB06KT 9999 FEW250 QNH3012INS TX21/1523Z TN04/1613Z

Example: see airport list